sensor_id;sensor_type;location;lat;lon;timestamp;P1;durP1;ratioP1;P2;durP2;ratioP2
71183;SDS011;58887;51.980;4.464;2023-07-30T00:01:07;5.19;;;3.57;;
71183;SDS011;58887;51.980;4.464;2023-07-30T00:03:33;4.72;;;3.26;;
71183;SDS011;58887;51.980;4.464;2023-07-30T00:05:58;5.56;;;3.75;;
71183;SDS011;58887;51.980;4.464;2023-07-30T00:08:23;5.45;;;3.68;;
71183;SDS011;58887;51.980;4.464;2023-07-30T00:10:49;4.85;;;3.37;;
71183;SDS011;58887;51.980;4.464;2023-07-30T00:13:15;5.08;;;3.52;;
71183;SDS011;58887;51.980;4.464;2023-07-30T00:15:40;5.83;;;3.91;;
71183;SDS011;58887;51.980;4.464;2023-07-30T00:18:06;5.21;;;3.55;;
71183;SDS011;58887;51.980;4.464;2023-07-30T00:20:33;5.18;;;3.52;;
71183;SDS011;58887;51.980;4.464;2023-07-30T00:23:01;5.51;;;3.72;;
71183;SDS011;58887;51.980;4.464;2023-07-30T00:25:26;6.09;;;4.09;;
71183;SDS011;58887;51.980;4.464;2023-07-30T00:27:52;5.43;;;3.65;;
71183;SDS011;58887;51.980;4.464;2023-07-30T00:30:17;5.20;;;3.52;;
71183;SDS011;58887;51.980;4.464;2023-07-30T00:32:43;5.43;;;3.66;;
71183;SDS011;58887;51.980;4.464;2023-07-30T00:35:09;5.76;;;3.90;;
71183;SDS011;58887;51.980;4.464;2023-07-30T00:37:35;5.69;;;3.72;;
71183;SDS011;58887;51.980;4.464;2023-07-30T00:40:01;5.84;;;3.82;;
71183;SDS011;58887;51.980;4.464;2023-07-30T00:42:28;5.42;;;3.61;;
71183;SDS011;58887;51.980;4.464;2023-07-30T00:44:54;5.55;;;3.68;;
71183;SDS011;58887;51.980;4.464;2023-07-30T00:47:19;7.74;;;5.02;;
71183;SDS011;58887;51.980;4.464;2023-07-30T00:49:46;5.66;;;3.79;;
71183;SDS011;58887;51.980;4.464;2023-07-30T00:52:14;6.03;;;4.03;;
71183;SDS011;58887;51.980;4.464;2023-07-30T00:54:41;5.68;;;3.77;;
71183;SDS011;58887;51.980;4.464;2023-07-30T00:57:07;5.71;;;3.77;;
71183;SDS011;58887;51.980;4.464;2023-07-30T00:59:34;5.10;;;3.38;;
71183;SDS011;58887;51.980;4.464;2023-07-30T01:02:00;6.00;;;3.99;;
71183;SDS011;58887;51.980;4.464;2023-07-30T01:04:28;6.19;;;4.12;;
71183;SDS011;58887;51.980;4.464;2023-07-30T01:06:55;6.09;;;3.90;;
71183;SDS011;58887;51.980;4.464;2023-07-30T01:09:20;6.17;;;3.99;;
71183;SDS011;58887;51.980;4.464;2023-07-30T01:11:46;6.16;;;4.02;;
71183;SDS011;58887;51.980;4.464;2023-07-30T01:14:14;5.72;;;3.76;;
71183;SDS011;58887;51.980;4.464;2023-07-30T01:16:41;5.98;;;3.84;;
71183;SDS011;58887;51.980;4.464;2023-07-30T01:19:07;7.76;;;4.96;;
71183;SDS011;58887;51.980;4.464;2023-07-30T01:21:33;6.92;;;4.34;;
71183;SDS011;58887;51.980;4.464;2023-07-30T01:23:59;7.86;;;4.90;;
71183;SDS011;58887;51.980;4.464;2023-07-30T01:26:27;6.16;;;3.81;;
71183;SDS011;58887;51.980;4.464;2023-07-30T01:28:58;6.55;;;4.09;;
71183;SDS011;58887;51.980;4.464;2023-07-30T01:31:27;5.77;;;3.67;;
71183;SDS011;58887;51.980;4.464;2023-07-30T01:33:57;6.20;;;3.91;;
71183;SDS011;58887;51.980;4.464;2023-07-30T01:36:26;7.04;;;4.44;;
71183;SDS011;58887;51.980;4.464;2023-07-30T01:38:54;5.45;;;3.52;;
71183;SDS011;58887;51.980;4.464;2023-07-30T01:41:22;6.64;;;4.27;;
71183;SDS011;58887;51.980;4.464;2023-07-30T01:43:49;6.71;;;4.28;;
71183;SDS011;58887;51.980;4.464;2023-07-30T01:46:15;6.68;;;4.26;;
71183;SDS011;58887;51.980;4.464;2023-07-30T01:48:41;6.40;;;4.10;;
71183;SDS011;58887;51.980;4.464;2023-07-30T01:51:07;6.99;;;4.43;;
71183;SDS011;58887;51.980;4.464;2023-07-30T01:53:32;6.25;;;3.94;;
71183;SDS011;58887;51.980;4.464;2023-07-30T01:55:58;7.14;;;4.46;;
71183;SDS011;58887;51.980;4.464;2023-07-30T01:58:23;6.95;;;4.36;;
71183;SDS011;58887;51.980;4.464;2023-07-30T02:00:48;6.69;;;4.22;;
71183;SDS011;58887;51.980;4.464;2023-07-30T02:03:14;6.38;;;3.98;;
71183;SDS011;58887;51.980;4.464;2023-07-30T02:05:39;6.87;;;4.34;;
71183;SDS011;58887;51.980;4.464;2023-07-30T02:08:05;6.47;;;4.14;;
71183;SDS011;58887;51.980;4.464;2023-07-30T02:10:30;7.18;;;4.60;;
71183;SDS011;58887;51.980;4.464;2023-07-30T02:12:57;7.60;;;4.76;;
71183;SDS011;58887;51.980;4.464;2023-07-30T02:15:22;7.41;;;4.65;;
71183;SDS011;58887;51.980;4.464;2023-07-30T02:17:48;7.04;;;4.49;;
71183;SDS011;58887;51.980;4.464;2023-07-30T02:20:13;7.18;;;4.53;;
71183;SDS011;58887;51.980;4.464;2023-07-30T02:22:39;7.05;;;4.40;;
71183;SDS011;58887;51.980;4.464;2023-07-30T02:25:04;6.99;;;4.37;;
71183;SDS011;58887;51.980;4.464;2023-07-30T02:27:31;6.06;;;3.78;;
71183;SDS011;58887;51.980;4.464;2023-07-30T02:29:56;7.44;;;4.64;;
71183;SDS011;58887;51.980;4.464;2023-07-30T02:32:22;8.65;;;5.35;;
71183;SDS011;58887;51.980;4.464;2023-07-30T02:34:48;7.17;;;4.43;;
71183;SDS011;58887;51.980;4.464;2023-07-30T02:37:13;7.41;;;4.58;;
71183;SDS011;58887;51.980;4.464;2023-07-30T02:39:38;7.96;;;4.94;;
71183;SDS011;58887;51.980;4.464;2023-07-30T02:42:04;8.04;;;5.05;;
71183;SDS011;58887;51.980;4.464;2023-07-30T02:44:30;7.54;;;4.71;;
71183;SDS011;58887;51.980;4.464;2023-07-30T02:46:55;7.68;;;4.80;;
71183;SDS011;58887;51.980;4.464;2023-07-30T02:49:21;6.81;;;4.23;;
71183;SDS011;58887;51.980;4.464;2023-07-30T02:51:46;6.75;;;4.24;;
71183;SDS011;58887;51.980;4.464;2023-07-30T02:54:14;7.28;;;4.56;;
71183;SDS011;58887;51.980;4.464;2023-07-30T02:56:42;6.46;;;4.15;;
71183;SDS011;58887;51.980;4.464;2023-07-30T02:59:08;6.45;;;4.15;;
71183;SDS011;58887;51.980;4.464;2023-07-30T03:01:33;6.11;;;3.92;;
71183;SDS011;58887;51.980;4.464;2023-07-30T03:03:59;6.89;;;4.45;;
71183;SDS011;58887;51.980;4.464;2023-07-30T03:06:24;5.78;;;3.74;;
71183;SDS011;58887;51.980;4.464;2023-07-30T03:08:50;6.32;;;4.03;;
71183;SDS011;58887;51.980;4.464;2023-07-30T03:11:15;7.19;;;4.56;;
71183;SDS011;58887;51.980;4.464;2023-07-30T03:13:41;6.94;;;4.42;;
71183;SDS011;58887;51.980;4.464;2023-07-30T03:16:06;6.88;;;4.38;;
71183;SDS011;58887;51.980;4.464;2023-07-30T03:18:32;6.63;;;4.29;;
71183;SDS011;58887;51.980;4.464;2023-07-30T03:20:58;6.71;;;4.28;;
71183;SDS011;58887;51.980;4.464;2023-07-30T03:23:26;6.64;;;4.25;;
71183;SDS011;58887;51.980;4.464;2023-07-30T03:25:52;6.45;;;4.16;;
71183;SDS011;58887;51.980;4.464;2023-07-30T03:28:18;4.83;;;3.18;;
71183;SDS011;58887;51.980;4.464;2023-07-30T03:30:44;5.49;;;3.62;;
71183;SDS011;58887;51.980;4.464;2023-07-30T03:33:10;5.94;;;3.84;;
71183;SDS011;58887;51.980;4.464;2023-07-30T03:35:35;5.96;;;3.79;;
71183;SDS011;58887;51.980;4.464;2023-07-30T03:38:01;5.57;;;3.61;;
71183;SDS011;58887;51.980;4.464;2023-07-30T03:40:27;4.79;;;3.22;;
71183;SDS011;58887;51.980;4.464;2023-07-30T03:42:54;4.71;;;3.18;;
71183;SDS011;58887;51.980;4.464;2023-07-30T03:45:19;4.73;;;3.14;;
71183;SDS011;58887;51.980;4.464;2023-07-30T03:47:44;4.45;;;2.96;;
71183;SDS011;58887;51.980;4.464;2023-07-30T03:50:10;4.19;;;2.83;;
71183;SDS011;58887;51.980;4.464;2023-07-30T03:52:36;4.87;;;3.32;;
71183;SDS011;58887;51.980;4.464;2023-07-30T03:55:01;4.45;;;3.00;;
71183;SDS011;58887;51.980;4.464;2023-07-30T03:57:27;4.11;;;2.80;;
71183;SDS011;58887;51.980;4.464;2023-07-30T03:59:52;3.79;;;2.57;;
71183;SDS011;58887;51.980;4.464;2023-07-30T04:02:17;3.98;;;2.70;;
71183;SDS011;58887;51.980;4.464;2023-07-30T04:04:43;4.54;;;3.04;;
71183;SDS011;58887;51.980;4.464;2023-07-30T04:07:09;4.30;;;2.93;;
71183;SDS011;58887;51.980;4.464;2023-07-30T04:09:35;3.17;;;2.23;;
71183;SDS011;58887;51.980;4.464;2023-07-30T04:12:01;3.49;;;2.43;;
71183;SDS011;58887;51.980;4.464;2023-07-30T04:14:28;3.09;;;2.19;;
71183;SDS011;58887;51.980;4.464;2023-07-30T04:16:54;3.17;;;2.30;;
71183;SDS011;58887;51.980;4.464;2023-07-30T04:19:19;3.10;;;2.28;;
71183;SDS011;58887;51.980;4.464;2023-07-30T04:21:46;2.43;;;1.75;;
71183;SDS011;58887;51.980;4.464;2023-07-30T04:24:11;2.41;;;1.74;;
71183;SDS011;58887;51.980;4.464;2023-07-30T04:26:38;2.66;;;1.94;;
71183;SDS011;58887;51.980;4.464;2023-07-30T04:29:03;1.96;;;1.44;;
71183;SDS011;58887;51.980;4.464;2023-07-30T04:31:28;2.35;;;1.71;;
71183;SDS011;58887;51.980;4.464;2023-07-30T04:33:54;2.09;;;1.51;;
71183;SDS011;58887;51.980;4.464;2023-07-30T04:36:24;2.58;;;1.86;;
71183;SDS011;58887;51.980;4.464;2023-07-30T04:38:49;2.83;;;2.02;;
71183;SDS011;58887;51.980;4.464;2023-07-30T04:41:15;2.45;;;1.75;;
71183;SDS011;58887;51.980;4.464;2023-07-30T04:43:40;2.25;;;1.61;;
71183;SDS011;58887;51.980;4.464;2023-07-30T04:46:07;1.99;;;1.45;;
71183;SDS011;58887;51.980;4.464;2023-07-30T04:48:32;1.81;;;1.35;;
71183;SDS011;58887;51.980;4.464;2023-07-30T04:50:57;1.91;;;1.43;;
71183;SDS011;58887;51.980;4.464;2023-07-30T04:53:23;2.05;;;1.53;;
71183;SDS011;58887;51.980;4.464;2023-07-30T04:55:48;2.20;;;1.60;;
71183;SDS011;58887;51.980;4.464;2023-07-30T04:58:22;2.34;;;1.68;;
71183;SDS011;58887;51.980;4.464;2023-07-30T05:00:48;2.32;;;1.64;;
71183;SDS011;58887;51.980;4.464;2023-07-30T05:03:14;2.21;;;1.58;;
71183;SDS011;58887;51.980;4.464;2023-07-30T05:05:40;2.22;;;1.59;;
71183;SDS011;58887;51.980;4.464;2023-07-30T05:08:05;3.04;;;2.22;;
71183;SDS011;58887;51.980;4.464;2023-07-30T05:10:31;3.93;;;2.82;;
71183;SDS011;58887;51.980;4.464;2023-07-30T05:12:56;4.28;;;2.97;;
71183;SDS011;58887;51.980;4.464;2023-07-30T05:15:22;5.67;;;3.82;;
71183;SDS011;58887;51.980;4.464;2023-07-30T05:17:47;5.03;;;3.38;;
71183;SDS011;58887;51.980;4.464;2023-07-30T05:20:15;5.43;;;3.68;;
71183;SDS011;58887;51.980;4.464;2023-07-30T05:22:40;4.22;;;2.91;;
71183;SDS011;58887;51.980;4.464;2023-07-30T05:25:06;5.49;;;3.71;;
71183;SDS011;58887;51.980;4.464;2023-07-30T05:27:32;4.85;;;3.31;;
71183;SDS011;58887;51.980;4.464;2023-07-30T05:29:57;4.95;;;3.41;;
71183;SDS011;58887;51.980;4.464;2023-07-30T05:32:23;4.57;;;3.14;;
71183;SDS011;58887;51.980;4.464;2023-07-30T05:34:48;4.60;;;3.14;;
71183;SDS011;58887;51.980;4.464;2023-07-30T05:37:17;4.75;;;3.25;;
71183;SDS011;58887;51.980;4.464;2023-07-30T05:39:42;4.40;;;3.06;;
71183;SDS011;58887;51.980;4.464;2023-07-30T05:42:08;3.79;;;2.67;;
71183;SDS011;58887;51.980;4.464;2023-07-30T05:44:33;4.99;;;3.43;;
71183;SDS011;58887;51.980;4.464;2023-07-30T05:46:59;4.84;;;3.25;;
71183;SDS011;58887;51.980;4.464;2023-07-30T05:49:24;5.07;;;3.37;;
71183;SDS011;58887;51.980;4.464;2023-07-30T05:51:50;5.21;;;3.38;;
71183;SDS011;58887;51.980;4.464;2023-07-30T05:54:16;5.62;;;3.67;;
71183;SDS011;58887;51.980;4.464;2023-07-30T05:56:43;4.66;;;3.17;;
71183;SDS011;58887;51.980;4.464;2023-07-30T05:59:08;3.96;;;2.79;;
71183;SDS011;58887;51.980;4.464;2023-07-30T06:01:34;4.38;;;2.98;;
71183;SDS011;58887;51.980;4.464;2023-07-30T06:03:59;4.48;;;3.05;;
71183;SDS011;58887;51.980;4.464;2023-07-30T06:06:24;4.70;;;3.20;;
71183;SDS011;58887;51.980;4.464;2023-07-30T06:08:53;4.59;;;3.14;;
71183;SDS011;58887;51.980;4.464;2023-07-30T06:11:19;5.08;;;3.50;;
71183;SDS011;58887;51.980;4.464;2023-07-30T06:13:46;4.86;;;3.33;;
71183;SDS011;58887;51.980;4.464;2023-07-30T06:16:12;4.79;;;3.32;;
71183;SDS011;58887;51.980;4.464;2023-07-30T06:18:38;4.03;;;2.76;;
71183;SDS011;58887;51.980;4.464;2023-07-30T06:21:03;3.99;;;2.75;;
71183;SDS011;58887;51.980;4.464;2023-07-30T06:23:29;3.80;;;2.69;;
71183;SDS011;58887;51.980;4.464;2023-07-30T06:25:54;4.20;;;2.91;;
71183;SDS011;58887;51.980;4.464;2023-07-30T06:28:20;4.46;;;3.00;;
71183;SDS011;58887;51.980;4.464;2023-07-30T06:30:45;4.40;;;2.95;;
71183;SDS011;58887;51.980;4.464;2023-07-30T06:33:13;4.98;;;3.34;;
71183;SDS011;58887;51.980;4.464;2023-07-30T06:35:38;4.28;;;2.90;;
71183;SDS011;58887;51.980;4.464;2023-07-30T06:38:05;4.87;;;3.32;;
71183;SDS011;58887;51.980;4.464;2023-07-30T06:40:33;4.77;;;3.28;;
71183;SDS011;58887;51.980;4.464;2023-07-30T06:42:59;4.38;;;3.03;;
71183;SDS011;58887;51.980;4.464;2023-07-30T06:45:26;4.11;;;2.84;;
71183;SDS011;58887;51.980;4.464;2023-07-30T06:47:52;4.14;;;2.83;;
71183;SDS011;58887;51.980;4.464;2023-07-30T06:50:17;4.73;;;3.29;;
71183;SDS011;58887;51.980;4.464;2023-07-30T06:52:43;4.18;;;3.00;;
71183;SDS011;58887;51.980;4.464;2023-07-30T06:55:08;4.79;;;3.42;;
71183;SDS011;58887;51.980;4.464;2023-07-30T06:57:34;4.85;;;3.48;;
71183;SDS011;58887;51.980;4.464;2023-07-30T07:00:01;4.36;;;3.09;;
71183;SDS011;58887;51.980;4.464;2023-07-30T07:02:27;4.55;;;3.24;;
71183;SDS011;58887;51.980;4.464;2023-07-30T07:04:53;5.41;;;3.82;;
71183;SDS011;58887;51.980;4.464;2023-07-30T07:10:15;4.70;;;3.33;;
71183;SDS011;58887;51.980;4.464;2023-07-30T07:12:41;5.78;;;4.10;;
71183;SDS011;58887;51.980;4.464;2023-07-30T07:15:08;4.21;;;3.03;;
71183;SDS011;58887;51.980;4.464;2023-07-30T07:17:49;3.99;;;2.86;;
71183;SDS011;58887;51.980;4.464;2023-07-30T07:20:29;4.43;;;3.13;;
71183;SDS011;58887;51.980;4.464;2023-07-30T07:22:56;4.37;;;3.11;;
71183;SDS011;58887;51.980;4.464;2023-07-30T07:25:24;4.82;;;3.37;;
71183;SDS011;58887;51.980;4.464;2023-07-30T07:27:50;4.37;;;3.07;;
71183;SDS011;58887;51.980;4.464;2023-07-30T07:32:47;3.55;;;2.52;;
71183;SDS011;58887;51.980;4.464;2023-07-30T07:35:16;3.92;;;2.78;;
71183;SDS011;58887;51.980;4.464;2023-07-30T07:43:48;2.14;;;1.52;;
71183;SDS011;58887;51.980;4.464;2023-07-30T07:46:16;2.17;;;1.54;;
71183;SDS011;58887;51.980;4.464;2023-07-30T07:48:43;2.75;;;1.94;;
71183;SDS011;58887;51.980;4.464;2023-07-30T07:51:09;2.48;;;1.73;;
71183;SDS011;58887;51.980;4.464;2023-07-30T07:53:36;2.35;;;1.64;;
71183;SDS011;58887;51.980;4.464;2023-07-30T07:56:03;2.63;;;1.85;;
71183;SDS011;58887;51.980;4.464;2023-07-30T07:58:28;3.04;;;2.13;;
71183;SDS011;58887;51.980;4.464;2023-07-30T08:01:00;2.76;;;1.93;;
71183;SDS011;58887;51.980;4.464;2023-07-30T08:03:25;2.22;;;1.58;;
71183;SDS011;58887;51.980;4.464;2023-07-30T08:05:52;2.29;;;1.61;;
71183;SDS011;58887;51.980;4.464;2023-07-30T08:08:19;2.55;;;1.77;;
71183;SDS011;58887;51.980;4.464;2023-07-30T08:10:46;2.63;;;1.82;;
71183;SDS011;58887;51.980;4.464;2023-07-30T08:13:14;3.06;;;2.13;;
71183;SDS011;58887;51.980;4.464;2023-07-30T08:15:45;2.99;;;2.08;;
71183;SDS011;58887;51.980;4.464;2023-07-30T08:18:11;2.54;;;1.78;;
71183;SDS011;58887;51.980;4.464;2023-07-30T08:20:37;2.68;;;1.91;;
71183;SDS011;58887;51.980;4.464;2023-07-30T08:23:03;2.74;;;1.93;;
71183;SDS011;58887;51.980;4.464;2023-07-30T08:25:29;2.91;;;2.03;;
71183;SDS011;58887;51.980;4.464;2023-07-30T08:27:55;2.25;;;1.60;;
71183;SDS011;58887;51.980;4.464;2023-07-30T08:30:24;3.12;;;2.21;;
71183;SDS011;58887;51.980;4.464;2023-07-30T08:32:49;2.75;;;1.95;;
71183;SDS011;58887;51.980;4.464;2023-07-30T08:35:15;2.71;;;1.91;;
71183;SDS011;58887;51.980;4.464;2023-07-30T08:37:41;2.50;;;1.75;;
71183;SDS011;58887;51.980;4.464;2023-07-30T08:40:07;2.94;;;2.06;;
71183;SDS011;58887;51.980;4.464;2023-07-30T08:42:33;3.02;;;2.09;;
71183;SDS011;58887;51.980;4.464;2023-07-30T08:44:59;2.36;;;1.62;;
71183;SDS011;58887;51.980;4.464;2023-07-30T08:47:24;3.01;;;2.02;;
71183;SDS011;58887;51.980;4.464;2023-07-30T08:49:50;2.69;;;1.79;;
71183;SDS011;58887;51.980;4.464;2023-07-30T08:52:16;3.02;;;2.04;;
71183;SDS011;58887;51.980;4.464;2023-07-30T08:54:57;3.27;;;2.21;;
71183;SDS011;58887;51.980;4.464;2023-07-30T08:57:27;2.88;;;1.92;;
71183;SDS011;58887;51.980;4.464;2023-07-30T09:02:33;3.03;;;2.00;;
71183;SDS011;58887;51.980;4.464;2023-07-30T09:05:03;3.22;;;2.14;;
71183;SDS011;58887;51.980;4.464;2023-07-30T09:07:31;2.72;;;1.81;;
71183;SDS011;58887;51.980;4.464;2023-07-30T09:09:58;2.66;;;1.79;;
71183;SDS011;58887;51.980;4.464;2023-07-30T09:12:35;2.82;;;1.93;;
71183;SDS011;58887;51.980;4.464;2023-07-30T09:15:05;2.23;;;1.55;;
71183;SDS011;58887;51.980;4.464;2023-07-30T09:17:32;2.61;;;1.80;;
71183;SDS011;58887;51.980;4.464;2023-07-30T09:20:00;2.50;;;1.74;;
71183;SDS011;58887;51.980;4.464;2023-07-30T09:22:33;2.55;;;1.73;;
71183;SDS011;58887;51.980;4.464;2023-07-30T09:25:10;3.19;;;2.13;;
71183;SDS011;58887;51.980;4.464;2023-07-30T09:27:37;2.62;;;1.74;;
71183;SDS011;58887;51.980;4.464;2023-07-30T09:32:58;2.56;;;1.74;;
71183;SDS011;58887;51.980;4.464;2023-07-30T09:38:14;2.98;;;2.08;;
71183;SDS011;58887;51.980;4.464;2023-07-30T09:40:42;2.44;;;1.70;;
71183;SDS011;58887;51.980;4.464;2023-07-30T09:43:08;2.90;;;1.99;;
71183;SDS011;58887;51.980;4.464;2023-07-30T09:45:35;2.74;;;1.88;;
71183;SDS011;58887;51.980;4.464;2023-07-30T09:48:08;2.56;;;1.79;;
71183;SDS011;58887;51.980;4.464;2023-07-30T09:53:05;2.44;;;1.72;;
71183;SDS011;58887;51.980;4.464;2023-07-30T09:55:30;2.31;;;1.61;;
71183;SDS011;58887;51.980;4.464;2023-07-30T09:57:59;2.67;;;1.81;;
71183;SDS011;58887;51.980;4.464;2023-07-30T10:00:24;2.34;;;1.60;;
71183;SDS011;58887;51.980;4.464;2023-07-30T10:02:52;2.50;;;1.74;;
71183;SDS011;58887;51.980;4.464;2023-07-30T10:05:20;3.05;;;2.06;;
71183;SDS011;58887;51.980;4.464;2023-07-30T10:07:57;3.46;;;2.34;;
71183;SDS011;58887;51.980;4.464;2023-07-30T10:10:40;2.67;;;1.80;;
71183;SDS011;58887;51.980;4.464;2023-07-30T10:13:08;2.76;;;1.85;;
71183;SDS011;58887;51.980;4.464;2023-07-30T10:15:42;2.31;;;1.52;;
71183;SDS011;58887;51.980;4.464;2023-07-30T10:18:10;3.17;;;2.11;;
71183;SDS011;58887;51.980;4.464;2023-07-30T10:20:36;2.69;;;1.80;;
71183;SDS011;58887;51.980;4.464;2023-07-30T10:23:04;3.32;;;2.24;;
71183;SDS011;58887;51.980;4.464;2023-07-30T10:25:48;3.52;;;2.37;;
71183;SDS011;58887;51.980;4.464;2023-07-30T10:31:04;2.47;;;1.69;;
71183;SDS011;58887;51.980;4.464;2023-07-30T10:41:51;2.20;;;1.52;;
71183;SDS011;58887;51.980;4.464;2023-07-30T10:44:21;2.48;;;1.74;;
71183;SDS011;58887;51.980;4.464;2023-07-30T10:46:57;2.51;;;1.75;;
71183;SDS011;58887;51.980;4.464;2023-07-30T10:49:24;2.09;;;1.45;;
71183;SDS011;58887;51.980;4.464;2023-07-30T10:51:52;1.96;;;1.34;;
71183;SDS011;58887;51.980;4.464;2023-07-30T10:54:19;2.06;;;1.42;;
71183;SDS011;58887;51.980;4.464;2023-07-30T10:56:45;3.46;;;2.45;;
71183;SDS011;58887;51.980;4.464;2023-07-30T10:59:12;2.50;;;1.78;;
71183;SDS011;58887;51.980;4.464;2023-07-30T11:01:40;2.12;;;1.51;;
71183;SDS011;58887;51.980;4.464;2023-07-30T11:04:09;2.60;;;1.83;;
71183;SDS011;58887;51.980;4.464;2023-07-30T11:06:36;2.25;;;1.55;;
71183;SDS011;58887;51.980;4.464;2023-07-30T11:09:04;1.87;;;1.30;;
71183;SDS011;58887;51.980;4.464;2023-07-30T11:11:31;2.07;;;1.44;;
71183;SDS011;58887;51.980;4.464;2023-07-30T11:13:58;2.24;;;1.57;;
71183;SDS011;58887;51.980;4.464;2023-07-30T11:16:24;2.29;;;1.63;;
71183;SDS011;58887;51.980;4.464;2023-07-30T11:18:50;2.52;;;1.78;;
71183;SDS011;58887;51.980;4.464;2023-07-30T11:21:16;2.26;;;1.59;;
71183;SDS011;58887;51.980;4.464;2023-07-30T11:23:44;2.26;;;1.59;;
71183;SDS011;58887;51.980;4.464;2023-07-30T11:26:14;1.97;;;1.41;;
71183;SDS011;58887;51.980;4.464;2023-07-30T11:28:43;2.15;;;1.53;;
71183;SDS011;58887;51.980;4.464;2023-07-30T11:31:11;1.91;;;1.36;;
71183;SDS011;58887;51.980;4.464;2023-07-30T11:33:43;2.14;;;1.52;;
71183;SDS011;58887;51.980;4.464;2023-07-30T11:36:14;2.13;;;1.52;;
71183;SDS011;58887;51.980;4.464;2023-07-30T11:38:45;2.18;;;1.55;;
71183;SDS011;58887;51.980;4.464;2023-07-30T11:41:11;2.13;;;1.51;;
71183;SDS011;58887;51.980;4.464;2023-07-30T11:43:40;1.69;;;1.20;;
71183;SDS011;58887;51.980;4.464;2023-07-30T11:46:15;2.42;;;1.69;;
71183;SDS011;58887;51.980;4.464;2023-07-30T11:48:43;2.08;;;1.44;;
71183;SDS011;58887;51.980;4.464;2023-07-30T11:51:22;1.98;;;1.37;;
71183;SDS011;58887;51.980;4.464;2023-07-30T11:53:56;2.43;;;1.64;;
71183;SDS011;58887;51.980;4.464;2023-07-30T11:56:27;2.08;;;1.40;;
71183;SDS011;58887;51.980;4.464;2023-07-30T11:58:55;2.29;;;1.55;;
71183;SDS011;58887;51.980;4.464;2023-07-30T12:01:23;2.48;;;1.67;;
71183;SDS011;58887;51.980;4.464;2023-07-30T12:03:50;2.16;;;1.46;;
71183;SDS011;58887;51.980;4.464;2023-07-30T12:06:20;2.89;;;1.94;;
71183;SDS011;58887;51.980;4.464;2023-07-30T12:08:47;1.85;;;1.25;;
71183;SDS011;58887;51.980;4.464;2023-07-30T12:11:13;2.21;;;1.50;;
71183;SDS011;58887;51.980;4.464;2023-07-30T12:13:42;2.17;;;1.47;;
71183;SDS011;58887;51.980;4.464;2023-07-30T12:16:13;2.31;;;1.56;;
71183;SDS011;58887;51.980;4.464;2023-07-30T12:18:50;1.88;;;1.28;;
71183;SDS011;58887;51.980;4.464;2023-07-30T12:21:24;2.61;;;1.77;;
71183;SDS011;58887;51.980;4.464;2023-07-30T12:23:50;1.97;;;1.32;;
71183;SDS011;58887;51.980;4.464;2023-07-30T12:26:17;1.80;;;1.21;;
71183;SDS011;58887;51.980;4.464;2023-07-30T12:28:54;1.95;;;1.32;;
71183;SDS011;58887;51.980;4.464;2023-07-30T12:31:21;2.02;;;1.38;;
71183;SDS011;58887;51.980;4.464;2023-07-30T12:33:47;2.05;;;1.42;;
71183;SDS011;58887;51.980;4.464;2023-07-30T12:36:13;1.86;;;1.28;;
71183;SDS011;58887;51.980;4.464;2023-07-30T12:38:40;1.82;;;1.23;;
71183;SDS011;58887;51.980;4.464;2023-07-30T12:41:06;1.95;;;1.34;;
71183;SDS011;58887;51.980;4.464;2023-07-30T12:43:39;1.46;;;1.01;;
71183;SDS011;58887;51.980;4.464;2023-07-30T12:46:04;1.82;;;1.27;;
71183;SDS011;58887;51.980;4.464;2023-07-30T12:48:31;1.84;;;1.29;;
71183;SDS011;58887;51.980;4.464;2023-07-30T12:50:57;1.82;;;1.27;;
71183;SDS011;58887;51.980;4.464;2023-07-30T12:53:23;1.94;;;1.35;;
71183;SDS011;58887;51.980;4.464;2023-07-30T12:55:48;2.24;;;1.59;;
71183;SDS011;58887;51.980;4.464;2023-07-30T12:58:15;2.22;;;1.55;;
71183;SDS011;58887;51.980;4.464;2023-07-30T13:00:41;1.94;;;1.36;;
71183;SDS011;58887;51.980;4.464;2023-07-30T13:03:07;2.72;;;1.89;;
71183;SDS011;58887;51.980;4.464;2023-07-30T13:05:32;2.44;;;1.67;;
71183;SDS011;58887;51.980;4.464;2023-07-30T13:07:58;2.51;;;1.72;;
71183;SDS011;58887;51.980;4.464;2023-07-30T13:10:28;2.13;;;1.45;;
71183;SDS011;58887;51.980;4.464;2023-07-30T13:12:55;2.93;;;1.97;;
71183;SDS011;58887;51.980;4.464;2023-07-30T13:15:23;3.41;;;2.25;;
71183;SDS011;58887;51.980;4.464;2023-07-30T13:17:49;3.77;;;2.44;;
71183;SDS011;58887;51.980;4.464;2023-07-30T13:20:21;3.18;;;2.05;;
71183;SDS011;58887;51.980;4.464;2023-07-30T13:25:28;3.33;;;2.15;;
71183;SDS011;58887;51.980;4.464;2023-07-30T13:27:55;2.66;;;1.76;;
71183;SDS011;58887;51.980;4.464;2023-07-30T13:30:22;3.08;;;2.06;;
71183;SDS011;58887;51.980;4.464;2023-07-30T13:33:05;3.60;;;2.40;;
71183;SDS011;58887;51.980;4.464;2023-07-30T13:35:31;3.75;;;2.51;;
71183;SDS011;58887;51.980;4.464;2023-07-30T13:40:52;3.35;;;2.25;;
71183;SDS011;58887;51.980;4.464;2023-07-30T13:45:53;4.10;;;2.77;;
71183;SDS011;58887;51.980;4.464;2023-07-30T13:48:29;2.81;;;1.92;;
71183;SDS011;58887;51.980;4.464;2023-07-30T13:50:55;3.77;;;2.50;;
71183;SDS011;58887;51.980;4.464;2023-07-30T13:53:20;4.28;;;2.79;;
71183;SDS011;58887;51.980;4.464;2023-07-30T13:58:19;4.26;;;2.86;;
71183;SDS011;58887;51.980;4.464;2023-07-30T14:00:45;4.33;;;2.95;;
71183;SDS011;58887;51.980;4.464;2023-07-30T14:03:30;4.46;;;3.00;;
71183;SDS011;58887;51.980;4.464;2023-07-30T14:05:58;3.79;;;2.64;;
71183;SDS011;58887;51.980;4.464;2023-07-30T14:08:29;3.90;;;2.71;;
71183;SDS011;58887;51.980;4.464;2023-07-30T14:13:33;4.27;;;2.96;;
71183;SDS011;58887;51.980;4.464;2023-07-30T14:15:59;4.31;;;2.98;;
71183;SDS011;58887;51.980;4.464;2023-07-30T14:18:36;4.73;;;3.24;;
71183;SDS011;58887;51.980;4.464;2023-07-30T14:21:04;5.02;;;3.38;;
71183;SDS011;58887;51.980;4.464;2023-07-30T14:23:29;3.92;;;2.62;;
71183;SDS011;58887;51.980;4.464;2023-07-30T14:25:57;4.09;;;2.81;;
71183;SDS011;58887;51.980;4.464;2023-07-30T14:28:23;4.10;;;2.84;;
71183;SDS011;58887;51.980;4.464;2023-07-30T14:30:50;4.23;;;2.90;;
71183;SDS011;58887;51.980;4.464;2023-07-30T14:33:24;3.86;;;2.60;;
71183;SDS011;58887;51.980;4.464;2023-07-30T14:35:50;5.12;;;3.38;;
71183;SDS011;58887;51.980;4.464;2023-07-30T14:38:16;4.99;;;3.27;;
71183;SDS011;58887;51.980;4.464;2023-07-30T14:40:42;5.08;;;3.39;;
71183;SDS011;58887;51.980;4.464;2023-07-30T14:43:19;5.02;;;3.38;;
71183;SDS011;58887;51.980;4.464;2023-07-30T14:45:45;4.86;;;3.35;;
71183;SDS011;58887;51.980;4.464;2023-07-30T14:48:12;4.99;;;3.48;;
71183;SDS011;58887;51.980;4.464;2023-07-30T14:50:39;4.72;;;3.40;;
71183;SDS011;58887;51.980;4.464;2023-07-30T14:53:05;3.97;;;2.97;;
71183;SDS011;58887;51.980;4.464;2023-07-30T14:55:30;4.45;;;3.31;;
71183;SDS011;58887;51.980;4.464;2023-07-30T14:58:00;4.97;;;3.58;;
71183;SDS011;58887;51.980;4.464;2023-07-30T15:00:27;4.59;;;3.23;;
71183;SDS011;58887;51.980;4.464;2023-07-30T15:02:53;4.95;;;3.52;;
71183;SDS011;58887;51.980;4.464;2023-07-30T15:05:18;5.15;;;3.66;;
71183;SDS011;58887;51.980;4.464;2023-07-30T15:10:12;4.74;;;3.45;;
71183;SDS011;58887;51.980;4.464;2023-07-30T15:12:41;5.03;;;3.62;;
71183;SDS011;58887;51.980;4.464;2023-07-30T15:15:09;5.44;;;3.82;;
71183;SDS011;58887;51.980;4.464;2023-07-30T15:17:35;4.72;;;3.42;;
71183;SDS011;58887;51.980;4.464;2023-07-30T15:20:11;4.55;;;3.35;;
71183;SDS011;58887;51.980;4.464;2023-07-30T15:22:38;4.99;;;3.57;;
71183;SDS011;58887;51.980;4.464;2023-07-30T15:25:14;4.48;;;3.37;;
71183;SDS011;58887;51.980;4.464;2023-07-30T15:30:15;4.35;;;3.22;;
71183;SDS011;58887;51.980;4.464;2023-07-30T15:36:13;4.29;;;3.11;;
71183;SDS011;58887;51.980;4.464;2023-07-30T15:38:41;4.73;;;3.43;;
71183;SDS011;58887;51.980;4.464;2023-07-30T15:41:09;4.27;;;3.13;;
71183;SDS011;58887;51.980;4.464;2023-07-30T15:43:50;4.59;;;3.44;;